Terminal Aerodrome Forecast
Issued by NWS

Home | Current Version | Previous Version | Text Only | Print | Product List | Glossary On
Versions: 1 2 3 4 5 6 7 8 9 10 11 12 13 14 15 16 17 18 19 20 21 22 23 24 25 26 27
000
FTUS42 KMFL 202106 AAB
TAFFXE
TAF AMD
KFXE 202106Z 2021/2118 26007KT P6SM VCTS SCT025CB BKN050
     FM210100 20004KT P6SM SCT025 BKN250
     FM211500 15008KT P6SM VCTS SCT025CB BKN100=

USA.gov is the U.S. government's official web portal to all federal, state and local government web resources and services.